sensor_id;sensor_type;location;lat;lon;timestamp;P1;durP1;ratioP1;P2;durP2;ratioP2
75012;SDS011;63567;49.956;20.130;2023-05-21T00:00:35;17.88;;;15.18;;
75012;SDS011;63567;49.956;20.130;2023-05-21T00:03:00;21.45;;;15.85;;
75012;SDS011;63567;49.956;20.130;2023-05-21T00:05:26;20.27;;;16.47;;
75012;SDS011;63567;49.956;20.130;2023-05-21T00:07:51;21.03;;;17.17;;
75012;SDS011;63567;49.956;20.130;2023-05-21T00:10:18;20.52;;;16.23;;
75012;SDS011;63567;49.956;20.130;2023-05-21T00:12:44;21.17;;;15.82;;
75012;SDS011;63567;49.956;20.130;2023-05-21T00:15:10;20.67;;;16.33;;
75012;SDS011;63567;49.956;20.130;2023-05-21T00:17:35;21.95;;;16.98;;
75012;SDS011;63567;49.956;20.130;2023-05-21T00:20:00;20.97;;;16.57;;
75012;SDS011;63567;49.956;20.130;2023-05-21T00:22:29;22.23;;;16.70;;
75012;SDS011;63567;49.956;20.130;2023-05-21T00:24:54;21.33;;;16.13;;
75012;SDS011;63567;49.956;20.130;2023-05-21T00:27:19;20.80;;;16.80;;
75012;SDS011;63567;49.956;20.130;2023-05-21T00:29:45;21.77;;;16.37;;
75012;SDS011;63567;49.956;20.130;2023-05-21T00:32:10;20.77;;;16.53;;
75012;SDS011;63567;49.956;20.130;2023-05-21T00:34:35;22.50;;;16.20;;
75012;SDS011;63567;49.956;20.130;2023-05-21T00:37:01;22.05;;;16.40;;
75012;SDS011;63567;49.956;20.130;2023-05-21T00:39:26;22.23;;;16.95;;
75012;SDS011;63567;49.956;20.130;2023-05-21T00:41:52;21.30;;;17.33;;
75012;SDS011;63567;49.956;20.130;2023-05-21T00:44:17;21.75;;;16.70;;
75012;SDS011;63567;49.956;20.130;2023-05-21T00:46:44;22.85;;;17.63;;
75012;SDS011;63567;49.956;20.130;2023-05-21T00:49:12;21.95;;;16.55;;
75012;SDS011;63567;49.956;20.130;2023-05-21T00:51:38;22.40;;;16.85;;
75012;SDS011;63567;49.956;20.130;2023-05-21T00:54:04;23.38;;;17.50;;
75012;SDS011;63567;49.956;20.130;2023-05-21T00:56:29;25.23;;;18.03;;
75012;SDS011;63567;49.956;20.130;2023-05-21T00:58:55;22.92;;;17.42;;
75012;SDS011;63567;49.956;20.130;2023-05-21T01:01:21;23.70;;;18.00;;
75012;SDS011;63567;49.956;20.130;2023-05-21T01:03:49;24.63;;;18.33;;
75012;SDS011;63567;49.956;20.130;2023-05-21T01:06:16;25.02;;;18.38;;
75012;SDS011;63567;49.956;20.130;2023-05-21T01:08:41;25.83;;;19.17;;
75012;SDS011;63567;49.956;20.130;2023-05-21T01:11:08;24.45;;;18.30;;
75012;SDS011;63567;49.956;20.130;2023-05-21T01:13:36;26.95;;;21.00;;
75012;SDS011;63567;49.956;20.130;2023-05-21T01:16:03;27.67;;;19.67;;
75012;SDS011;63567;49.956;20.130;2023-05-21T01:18:30;26.02;;;19.10;;
75012;SDS011;63567;49.956;20.130;2023-05-21T01:20:59;27.52;;;19.75;;
75012;SDS011;63567;49.956;20.130;2023-05-21T01:23:25;25.70;;;18.77;;
75012;SDS011;63567;49.956;20.130;2023-05-21T01:25:51;27.02;;;19.13;;
75012;SDS011;63567;49.956;20.130;2023-05-21T01:28:16;25.07;;;18.17;;
75012;SDS011;63567;49.956;20.130;2023-05-21T01:30:41;26.30;;;18.70;;
75012;SDS011;63567;49.956;20.130;2023-05-21T01:33:12;26.10;;;19.15;;
75012;SDS011;63567;49.956;20.130;2023-05-21T01:35:46;25.02;;;18.17;;
75012;SDS011;63567;49.956;20.130;2023-05-21T01:38:30;22.63;;;17.52;;
75012;SDS011;63567;49.956;20.130;2023-05-21T01:41:06;24.85;;;17.73;;
75012;SDS011;63567;49.956;20.130;2023-05-21T01:43:35;24.30;;;18.20;;
75012;SDS011;63567;49.956;20.130;2023-05-21T01:46:03;26.05;;;18.60;;
75012;SDS011;63567;49.956;20.130;2023-05-21T01:48:29;26.25;;;20.23;;
75012;SDS011;63567;49.956;20.130;2023-05-21T01:50:59;24.33;;;18.55;;
75012;SDS011;63567;49.956;20.130;2023-05-21T01:53:26;26.25;;;18.50;;
75012;SDS011;63567;49.956;20.130;2023-05-21T01:55:51;26.38;;;19.45;;
75012;SDS011;63567;49.956;20.130;2023-05-21T01:58:18;25.63;;;18.95;;
75012;SDS011;63567;49.956;20.130;2023-05-21T02:00:45;25.38;;;19.55;;
75012;SDS011;63567;49.956;20.130;2023-05-21T02:03:12;24.30;;;18.98;;
75012;SDS011;63567;49.956;20.130;2023-05-21T02:05:41;27.45;;;19.63;;
75012;SDS011;63567;49.956;20.130;2023-05-21T02:08:06;27.00;;;19.23;;
75012;SDS011;63567;49.956;20.130;2023-05-21T02:10:32;28.92;;;20.50;;
75012;SDS011;63567;49.956;20.130;2023-05-21T02:12:58;27.55;;;19.92;;
75012;SDS011;63567;49.956;20.130;2023-05-21T02:15:23;29.77;;;20.03;;
75012;SDS011;63567;49.956;20.130;2023-05-21T02:17:48;28.60;;;19.83;;
75012;SDS011;63567;49.956;20.130;2023-05-21T02:20:15;29.55;;;20.70;;
75012;SDS011;63567;49.956;20.130;2023-05-21T02:22:45;30.85;;;21.35;;
75012;SDS011;63567;49.956;20.130;2023-05-21T02:25:11;33.47;;;21.77;;
75012;SDS011;63567;49.956;20.130;2023-05-21T02:27:38;32.00;;;22.15;;
75012;SDS011;63567;49.956;20.130;2023-05-21T02:30:05;33.88;;;23.33;;
75012;SDS011;63567;49.956;20.130;2023-05-21T02:32:32;32.30;;;21.98;;
75012;SDS011;63567;49.956;20.130;2023-05-21T02:34:58;32.45;;;21.95;;
75012;SDS011;63567;49.956;20.130;2023-05-21T02:37:24;31.92;;;21.95;;
75012;SDS011;63567;49.956;20.130;2023-05-21T02:39:51;31.42;;;22.00;;
75012;SDS011;63567;49.956;20.130;2023-05-21T02:42:17;37.33;;;23.83;;
75012;SDS011;63567;49.956;20.130;2023-05-21T02:44:42;34.67;;;21.77;;
75012;SDS011;63567;49.956;20.130;2023-05-21T02:47:07;32.80;;;22.00;;
75012;SDS011;63567;49.956;20.130;2023-05-21T02:49:34;32.40;;;21.52;;
75012;SDS011;63567;49.956;20.130;2023-05-21T02:51:59;32.95;;;21.38;;
75012;SDS011;63567;49.956;20.130;2023-05-21T02:54:24;34.47;;;23.03;;
75012;SDS011;63567;49.956;20.130;2023-05-21T02:56:50;30.00;;;22.00;;
75012;SDS011;63567;49.956;20.130;2023-05-21T02:59:15;31.07;;;21.33;;
75012;SDS011;63567;49.956;20.130;2023-05-21T03:01:40;30.57;;;22.50;;
75012;SDS011;63567;49.956;20.130;2023-05-21T03:04:05;34.10;;;23.87;;
75012;SDS011;63567;49.956;20.130;2023-05-21T03:06:31;31.63;;;21.97;;
75012;SDS011;63567;49.956;20.130;2023-05-21T03:08:56;35.50;;;22.40;;
75012;SDS011;63567;49.956;20.130;2023-05-21T03:11:21;35.07;;;22.97;;
75012;SDS011;63567;49.956;20.130;2023-05-21T03:13:46;33.33;;;20.97;;
75012;SDS011;63567;49.956;20.130;2023-05-21T03:16:12;34.17;;;23.03;;
75012;SDS011;63567;49.956;20.130;2023-05-21T03:18:38;31.25;;;20.88;;
75012;SDS011;63567;49.956;20.130;2023-05-21T03:21:03;34.55;;;20.98;;
75012;SDS011;63567;49.956;20.130;2023-05-21T03:23:29;32.40;;;20.08;;
75012;SDS011;63567;49.956;20.130;2023-05-21T03:25:55;30.80;;;20.67;;
75012;SDS011;63567;49.956;20.130;2023-05-21T03:28:21;33.10;;;20.57;;
75012;SDS011;63567;49.956;20.130;2023-05-21T03:30:46;29.60;;;20.03;;
75012;SDS011;63567;49.956;20.130;2023-05-21T03:33:13;28.67;;;20.63;;
75012;SDS011;63567;49.956;20.130;2023-05-21T03:35:39;29.75;;;20.10;;
75012;SDS011;63567;49.956;20.130;2023-05-21T03:38:04;29.70;;;19.57;;
75012;SDS011;63567;49.956;20.130;2023-05-21T03:40:30;28.17;;;19.97;;
75012;SDS011;63567;49.956;20.130;2023-05-21T03:42:55;29.77;;;21.93;;
75012;SDS011;63567;49.956;20.130;2023-05-21T03:45:20;28.77;;;20.50;;
75012;SDS011;63567;49.956;20.130;2023-05-21T03:47:45;30.00;;;20.43;;
75012;SDS011;63567;49.956;20.130;2023-05-21T03:50:12;30.10;;;20.25;;
75012;SDS011;63567;49.956;20.130;2023-05-21T03:52:38;31.27;;;21.10;;
75012;SDS011;63567;49.956;20.130;2023-05-21T03:55:03;28.10;;;20.80;;
75012;SDS011;63567;49.956;20.130;2023-05-21T03:57:29;31.70;;;21.35;;
75012;SDS011;63567;49.956;20.130;2023-05-21T03:59:54;27.70;;;19.33;;
75012;SDS011;63567;49.956;20.130;2023-05-21T04:02:20;27.63;;;19.48;;
75012;SDS011;63567;49.956;20.130;2023-05-21T04:04:45;27.52;;;19.80;;
75012;SDS011;63567;49.956;20.130;2023-05-21T04:07:11;28.30;;;19.25;;
75012;SDS011;63567;49.956;20.130;2023-05-21T04:09:39;30.73;;;21.05;;
75012;SDS011;63567;49.956;20.130;2023-05-21T04:12:05;28.73;;;20.23;;
75012;SDS011;63567;49.956;20.130;2023-05-21T04:14:31;27.13;;;20.05;;
75012;SDS011;63567;49.956;20.130;2023-05-21T04:16:57;26.50;;;18.47;;
75012;SDS011;63567;49.956;20.130;2023-05-21T04:19:22;24.73;;;17.53;;
75012;SDS011;63567;49.956;20.130;2023-05-21T04:21:47;27.33;;;18.47;;
75012;SDS011;63567;49.956;20.130;2023-05-21T04:24:12;23.57;;;17.13;;
75012;SDS011;63567;49.956;20.130;2023-05-21T04:26:38;28.50;;;19.33;;
75012;SDS011;63567;49.956;20.130;2023-05-21T04:29:05;28.63;;;18.73;;
75012;SDS011;63567;49.956;20.130;2023-05-21T04:31:31;29.00;;;19.60;;
75012;SDS011;63567;49.956;20.130;2023-05-21T04:33:56;26.27;;;18.47;;
75012;SDS011;63567;49.956;20.130;2023-05-21T04:36:21;28.40;;;19.70;;
75012;SDS011;63567;49.956;20.130;2023-05-21T04:38:48;28.55;;;19.80;;
75012;SDS011;63567;49.956;20.130;2023-05-21T04:41:13;29.02;;;20.70;;
75012;SDS011;63567;49.956;20.130;2023-05-21T04:43:39;28.05;;;20.23;;
75012;SDS011;63567;49.956;20.130;2023-05-21T04:46:08;27.65;;;20.10;;
75012;SDS011;63567;49.956;20.130;2023-05-21T04:48:33;27.23;;;20.77;;
75012;SDS011;63567;49.956;20.130;2023-05-21T04:50:58;27.00;;;19.27;;
75012;SDS011;63567;49.956;20.130;2023-05-21T04:53:23;26.80;;;19.90;;
75012;SDS011;63567;49.956;20.130;2023-05-21T04:55:49;25.38;;;19.65;;
75012;SDS011;63567;49.956;20.130;2023-05-21T04:58:15;26.37;;;18.83;;
75012;SDS011;63567;49.956;20.130;2023-05-21T05:00:41;25.17;;;18.40;;
75012;SDS011;63567;49.956;20.130;2023-05-21T05:03:10;27.55;;;19.58;;
75012;SDS011;63567;49.956;20.130;2023-05-21T05:05:36;24.58;;;18.38;;
75012;SDS011;63567;49.956;20.130;2023-05-21T05:08:01;23.60;;;17.57;;
75012;SDS011;63567;49.956;20.130;2023-05-21T05:10:27;22.75;;;17.40;;
75012;SDS011;63567;49.956;20.130;2023-05-21T05:12:53;23.92;;;17.85;;
75012;SDS011;63567;49.956;20.130;2023-05-21T05:15:18;24.47;;;17.43;;
75012;SDS011;63567;49.956;20.130;2023-05-21T05:17:43;20.60;;;15.97;;
75012;SDS011;63567;49.956;20.130;2023-05-21T05:20:12;20.35;;;15.88;;
75012;SDS011;63567;49.956;20.130;2023-05-21T05:22:37;19.87;;;15.80;;
75012;SDS011;63567;49.956;20.130;2023-05-21T05:25:02;20.00;;;15.73;;
75012;SDS011;63567;49.956;20.130;2023-05-21T05:27:28;20.77;;;15.82;;
75012;SDS011;63567;49.956;20.130;2023-05-21T05:29:53;20.53;;;14.97;;
75012;SDS011;63567;49.956;20.130;2023-05-21T05:32:18;19.57;;;14.73;;
75012;SDS011;63567;49.956;20.130;2023-05-21T05:34:44;21.07;;;14.90;;
75012;SDS011;63567;49.956;20.130;2023-05-21T05:37:09;20.33;;;14.95;;
75012;SDS011;63567;49.956;20.130;2023-05-21T05:39:34;16.30;;;13.83;;
75012;SDS011;63567;49.956;20.130;2023-05-21T05:42:00;20.03;;;14.47;;
75012;SDS011;63567;49.956;20.130;2023-05-21T05:44:25;19.27;;;14.90;;
75012;SDS011;63567;49.956;20.130;2023-05-21T05:46:51;19.65;;;15.27;;
75012;SDS011;63567;49.956;20.130;2023-05-21T05:49:16;19.20;;;15.70;;
75012;SDS011;63567;49.956;20.130;2023-05-21T05:51:41;16.97;;;13.87;;
75012;SDS011;63567;49.956;20.130;2023-05-21T05:54:06;15.33;;;13.30;;
75012;SDS011;63567;49.956;20.130;2023-05-21T05:56:32;17.70;;;13.77;;
75012;SDS011;63567;49.956;20.130;2023-05-21T05:58:57;17.85;;;13.48;;
75012;SDS011;63567;49.956;20.130;2023-05-21T06:01:23;17.40;;;13.75;;
75012;SDS011;63567;49.956;20.130;2023-05-21T06:03:50;17.05;;;12.80;;
75012;SDS011;63567;49.956;20.130;2023-05-21T06:06:15;18.15;;;13.63;;
75012;SDS011;63567;49.956;20.130;2023-05-21T06:08:41;16.58;;;13.35;;
75012;SDS011;63567;49.956;20.130;2023-05-21T06:11:06;17.80;;;14.03;;
75012;SDS011;63567;49.956;20.130;2023-05-21T06:13:32;20.52;;;14.38;;
75012;SDS011;63567;49.956;20.130;2023-05-21T06:15:57;17.48;;;13.75;;
75012;SDS011;63567;49.956;20.130;2023-05-21T06:18:23;17.53;;;13.60;;
75012;SDS011;63567;49.956;20.130;2023-05-21T06:20:48;17.63;;;14.77;;
75012;SDS011;63567;49.956;20.130;2023-05-21T06:23:13;16.73;;;13.00;;
75012;SDS011;63567;49.956;20.130;2023-05-21T06:25:38;15.47;;;12.97;;
75012;SDS011;63567;49.956;20.130;2023-05-21T06:28:04;17.10;;;13.73;;
75012;SDS011;63567;49.956;20.130;2023-05-21T06:30:29;17.63;;;14.00;;
75012;SDS011;63567;49.956;20.130;2023-05-21T06:32:55;15.73;;;12.63;;
75012;SDS011;63567;49.956;20.130;2023-05-21T06:35:21;16.75;;;13.02;;
75012;SDS011;63567;49.956;20.130;2023-05-21T06:37:46;16.00;;;13.00;;
75012;SDS011;63567;49.956;20.130;2023-05-21T06:40:12;17.58;;;15.13;;
75012;SDS011;63567;49.956;20.130;2023-05-21T06:42:37;15.73;;;12.60;;
75012;SDS011;63567;49.956;20.130;2023-05-21T06:45:03;15.30;;;12.60;;
75012;SDS011;63567;49.956;20.130;2023-05-21T06:47:28;16.65;;;13.27;;
75012;SDS011;63567;49.956;20.130;2023-05-21T06:49:54;14.97;;;12.73;;
75012;SDS011;63567;49.956;20.130;2023-05-21T06:52:19;15.23;;;12.60;;
75012;SDS011;63567;49.956;20.130;2023-05-21T06:54:44;16.43;;;13.00;;
75012;SDS011;63567;49.956;20.130;2023-05-21T06:57:09;17.17;;;12.77;;
75012;SDS011;63567;49.956;20.130;2023-05-21T06:59:35;17.02;;;12.02;;
75012;SDS011;63567;49.956;20.130;2023-05-21T07:02:00;14.73;;;11.83;;
75012;SDS011;63567;49.956;20.130;2023-05-21T07:04:25;17.47;;;11.87;;
75012;SDS011;63567;49.956;20.130;2023-05-21T07:06:51;13.05;;;10.98;;
75012;SDS011;63567;49.956;20.130;2023-05-21T07:09:17;13.15;;;11.75;;
75012;SDS011;63567;49.956;20.130;2023-05-21T07:11:42;14.75;;;11.80;;
75012;SDS011;63567;49.956;20.130;2023-05-21T07:14:08;13.80;;;11.20;;
75012;SDS011;63567;49.956;20.130;2023-05-21T07:16:33;16.20;;;11.40;;
75012;SDS011;63567;49.956;20.130;2023-05-21T07:18:59;14.63;;;12.23;;
75012;SDS011;63567;49.956;20.130;2023-05-21T07:21:24;14.77;;;11.20;;
75012;SDS011;63567;49.956;20.130;2023-05-21T07:23:49;13.67;;;10.80;;
75012;SDS011;63567;49.956;20.130;2023-05-21T07:26:15;12.27;;;10.27;;
75012;SDS011;63567;49.956;20.130;2023-05-21T07:28:40;11.98;;;9.65;;
75012;SDS011;63567;49.956;20.130;2023-05-21T07:31:05;13.40;;;11.07;;
75012;SDS011;63567;49.956;20.130;2023-05-21T07:33:32;11.98;;;9.82;;
75012;SDS011;63567;49.956;20.130;2023-05-21T07:35:57;12.75;;;10.60;;
75012;SDS011;63567;49.956;20.130;2023-05-21T07:38:23;12.73;;;10.53;;
75012;SDS011;63567;49.956;20.130;2023-05-21T07:40:48;14.50;;;10.50;;
75012;SDS011;63567;49.956;20.130;2023-05-21T07:43:13;12.37;;;9.80;;
75012;SDS011;63567;49.956;20.130;2023-05-21T07:45:38;11.73;;;10.40;;
75012;SDS011;63567;49.956;20.130;2023-05-21T07:48:04;12.07;;;10.37;;
75012;SDS011;63567;49.956;20.130;2023-05-21T07:50:29;14.00;;;10.88;;
75012;SDS011;63567;49.956;20.130;2023-05-21T07:52:55;13.65;;;10.65;;
75012;SDS011;63567;49.956;20.130;2023-05-21T07:55:20;12.73;;;10.07;;
75012;SDS011;63567;49.956;20.130;2023-05-21T07:57:45;13.67;;;10.30;;
75012;SDS011;63567;49.956;20.130;2023-05-21T08:00:11;12.30;;;10.33;;
75012;SDS011;63567;49.956;20.130;2023-05-21T08:02:38;13.88;;;10.98;;
75012;SDS011;63567;49.956;20.130;2023-05-21T08:05:03;12.90;;;10.73;;
75012;SDS011;63567;49.956;20.130;2023-05-21T08:07:29;10.90;;;9.25;;
75012;SDS011;63567;49.956;20.130;2023-05-21T08:09:55;12.43;;;9.90;;
75012;SDS011;63567;49.956;20.130;2023-05-21T08:12:21;11.68;;;9.23;;
75012;SDS011;63567;49.956;20.130;2023-05-21T08:14:46;13.50;;;10.20;;
75012;SDS011;63567;49.956;20.130;2023-05-21T08:17:11;11.50;;;10.03;;
75012;SDS011;63567;49.956;20.130;2023-05-21T08:19:37;10.35;;;8.82;;
75012;SDS011;63567;49.956;20.130;2023-05-21T08:22:02;12.83;;;9.40;;
75012;SDS011;63567;49.956;20.130;2023-05-21T08:24:27;12.80;;;9.30;;
75012;SDS011;63567;49.956;20.130;2023-05-21T08:26:52;12.63;;;9.40;;
75012;SDS011;63567;49.956;20.130;2023-05-21T08:29:18;11.40;;;9.07;;
75012;SDS011;63567;49.956;20.130;2023-05-21T08:31:43;10.50;;;9.10;;
75012;SDS011;63567;49.956;20.130;2023-05-21T08:34:08;10.33;;;9.23;;
75012;SDS011;63567;49.956;20.130;2023-05-21T08:36:33;9.90;;;8.83;;
75012;SDS011;63567;49.956;20.130;2023-05-21T08:38:59;10.43;;;8.20;;
75012;SDS011;63567;49.956;20.130;2023-05-21T08:41:25;10.02;;;9.02;;
75012;SDS011;63567;49.956;20.130;2023-05-21T08:43:54;10.43;;;9.07;;
75012;SDS011;63567;49.956;20.130;2023-05-21T08:46:22;9.73;;;8.73;;
75012;SDS011;63567;49.956;20.130;2023-05-21T08:48:49;9.85;;;8.40;;
75012;SDS011;63567;49.956;20.130;2023-05-21T08:51:15;10.05;;;8.20;;
75012;SDS011;63567;49.956;20.130;2023-05-21T08:53:41;9.73;;;8.83;;
75012;SDS011;63567;49.956;20.130;2023-05-21T08:56:09;9.80;;;7.72;;
75012;SDS011;63567;49.956;20.130;2023-05-21T08:58:37;8.55;;;7.55;;
75012;SDS011;63567;49.956;20.130;2023-05-21T09:01:04;8.38;;;7.53;;
75012;SDS011;63567;49.956;20.130;2023-05-21T09:03:29;8.38;;;7.55;;
75012;SDS011;63567;49.956;20.130;2023-05-21T09:05:56;9.68;;;7.72;;
75012;SDS011;63567;49.956;20.130;2023-05-21T09:08:30;7.88;;;7.05;;
75012;SDS011;63567;49.956;20.130;2023-05-21T09:11:00;9.65;;;7.25;;
75012;SDS011;63567;49.956;20.130;2023-05-21T09:13:27;9.38;;;7.82;;
75012;SDS011;63567;49.956;20.130;2023-05-21T09:15:54;8.10;;;7.30;;
75012;SDS011;63567;49.956;20.130;2023-05-21T09:18:20;8.90;;;7.75;;
75012;SDS011;63567;49.956;20.130;2023-05-21T09:20:45;7.87;;;7.07;;
75012;SDS011;63567;49.956;20.130;2023-05-21T09:23:11;7.30;;;6.60;;
75012;SDS011;63567;49.956;20.130;2023-05-21T09:28:15;8.27;;;7.47;;
75012;SDS011;63567;49.956;20.130;2023-05-21T09:30:45;7.95;;;7.10;;
75012;SDS011;63567;49.956;20.130;2023-05-21T09:33:11;8.57;;;7.63;;
75012;SDS011;63567;49.956;20.130;2023-05-21T09:35:48;8.82;;;7.15;;
75012;SDS011;63567;49.956;20.130;2023-05-21T09:38:14;9.95;;;7.75;;
75012;SDS011;63567;49.956;20.130;2023-05-21T09:40:42;9.60;;;7.00;;
75012;SDS011;63567;49.956;20.130;2023-05-21T09:43:12;6.88;;;6.18;;
75012;SDS011;63567;49.956;20.130;2023-05-21T09:45:39;7.03;;;6.35;;
75012;SDS011;63567;49.956;20.130;2023-05-21T09:48:31;7.72;;;6.38;;
75012;SDS011;63567;49.956;20.130;2023-05-21T09:51:17;8.75;;;6.47;;
75012;SDS011;63567;49.956;20.130;2023-05-21T09:53:45;6.85;;;6.20;;
75012;SDS011;63567;49.956;20.130;2023-05-21T09:56:13;8.00;;;6.50;;
75012;SDS011;63567;49.956;20.130;2023-05-21T09:58:39;7.13;;;6.53;;
75012;SDS011;63567;49.956;20.130;2023-05-21T10:01:05;7.22;;;6.53;;
75012;SDS011;63567;49.956;20.130;2023-05-21T10:03:31;7.05;;;5.90;;
75012;SDS011;63567;49.956;20.130;2023-05-21T10:06:02;8.05;;;5.43;;
75012;SDS011;63567;49.956;20.130;2023-05-21T10:08:29;6.38;;;5.85;;
75012;SDS011;63567;49.956;20.130;2023-05-21T10:10:59;7.45;;;6.25;;
75012;SDS011;63567;49.956;20.130;2023-05-21T10:13:26;8.98;;;6.60;;
75012;SDS011;63567;49.956;20.130;2023-05-21T10:15:54;7.93;;;6.30;;
75012;SDS011;63567;49.956;20.130;2023-05-21T10:18:25;7.55;;;5.55;;
75012;SDS011;63567;49.956;20.130;2023-05-21T10:20:51;7.93;;;7.10;;
75012;SDS011;63567;49.956;20.130;2023-05-21T10:23:17;6.78;;;5.30;;
75012;SDS011;63567;49.956;20.130;2023-05-21T10:25:44;7.30;;;5.80;;
75012;SDS011;63567;49.956;20.130;2023-05-21T10:28:10;7.80;;;5.53;;
75012;SDS011;63567;49.956;20.130;2023-05-21T10:30:40;5.97;;;5.38;;
75012;SDS011;63567;49.956;20.130;2023-05-21T10:33:05;6.07;;;5.47;;
75012;SDS011;63567;49.956;20.130;2023-05-21T10:35:32;7.07;;;5.95;;
75012;SDS011;63567;49.956;20.130;2023-05-21T10:37:57;6.60;;;5.72;;
75012;SDS011;63567;49.956;20.130;2023-05-21T10:40:27;6.80;;;5.80;;
75012;SDS011;63567;49.956;20.130;2023-05-21T10:48:32;6.13;;;5.53;;
75012;SDS011;63567;49.956;20.130;2023-05-21T10:56:58;5.90;;;5.30;;
75012;SDS011;63567;49.956;20.130;2023-05-21T10:59:41;6.80;;;6.15;;
75012;SDS011;63567;49.956;20.130;2023-05-21T11:02:10;6.70;;;5.80;;
75012;SDS011;63567;49.956;20.130;2023-05-21T11:04:37;6.38;;;5.78;;
75012;SDS011;63567;49.956;20.130;2023-05-21T11:07:06;7.22;;;5.93;;
75012;SDS011;63567;49.956;20.130;2023-05-21T11:09:32;7.85;;;7.15;;
75012;SDS011;63567;49.956;20.130;2023-05-21T11:11:58;6.97;;;6.20;;
75012;SDS011;63567;49.956;20.130;2023-05-21T11:16:59;6.70;;;5.38;;
75012;SDS011;63567;49.956;20.130;2023-05-21T11:19:37;6.75;;;6.15;;
75012;SDS011;63567;49.956;20.130;2023-05-21T11:22:04;6.93;;;5.88;;
75012;SDS011;63567;49.956;20.130;2023-05-21T11:24:31;9.65;;;8.10;;
75012;SDS011;63567;49.956;20.130;2023-05-21T11:27:01;8.60;;;5.38;;
75012;SDS011;63567;49.956;20.130;2023-05-21T11:29:31;7.32;;;6.50;;
75012;SDS011;63567;49.956;20.130;2023-05-21T11:32:04;6.50;;;5.90;;
75012;SDS011;63567;49.956;20.130;2023-05-21T11:34:37;7.07;;;6.47;;
75012;SDS011;63567;49.956;20.130;2023-05-21T11:39:41;6.63;;;6.03;;
75012;SDS011;63567;49.956;20.130;2023-05-21T11:42:08;8.93;;;8.32;;
75012;SDS011;63567;49.956;20.130;2023-05-21T11:44:42;7.20;;;6.57;;
75012;SDS011;63567;49.956;20.130;2023-05-21T11:47:10;8.40;;;6.30;;
75012;SDS011;63567;49.956;20.130;2023-05-21T11:49:39;7.07;;;6.45;;
75012;SDS011;63567;49.956;20.130;2023-05-21T11:52:05;7.03;;;6.13;;
75012;SDS011;63567;49.956;20.130;2023-05-21T11:54:36;7.30;;;6.70;;
75012;SDS011;63567;49.956;20.130;2023-05-21T11:57:07;9.20;;;8.50;;
75012;SDS011;63567;49.956;20.130;2023-05-21T12:01:59;8.75;;;8.13;;
75012;SDS011;63567;49.956;20.130;2023-05-21T12:04:31;7.63;;;7.03;;
75012;SDS011;63567;49.956;20.130;2023-05-21T12:06:57;9.45;;;8.85;;
75012;SDS011;63567;49.956;20.130;2023-05-21T12:09:23;7.32;;;6.63;;
75012;SDS011;63567;49.956;20.130;2023-05-21T12:11:48;7.20;;;6.50;;
75012;SDS011;63567;49.956;20.130;2023-05-21T12:14:15;12.57;;;11.77;;
75012;SDS011;63567;49.956;20.130;2023-05-21T12:16:41;7.05;;;6.55;;
75012;SDS011;63567;49.956;20.130;2023-05-21T12:19:06;6.57;;;5.97;;
75012;SDS011;63567;49.956;20.130;2023-05-21T12:21:31;6.60;;;6.00;;
75012;SDS011;63567;49.956;20.130;2023-05-21T12:23:57;6.47;;;5.78;;
75012;SDS011;63567;49.956;20.130;2023-05-21T12:26:23;6.82;;;6.22;;
75012;SDS011;63567;49.956;20.130;2023-05-21T12:28:55;6.68;;;6.13;;
75012;SDS011;63567;49.956;20.130;2023-05-21T12:31:21;5.93;;;5.50;;
75012;SDS011;63567;49.956;20.130;2023-05-21T12:33:47;8.15;;;6.43;;
75012;SDS011;63567;49.956;20.130;2023-05-21T12:36:21;7.00;;;6.40;;
75012;SDS011;63567;49.956;20.130;2023-05-21T12:38:50;7.13;;;6.35;;
75012;SDS011;63567;49.956;20.130;2023-05-21T12:41:16;6.38;;;5.88;;
75012;SDS011;63567;49.956;20.130;2023-05-21T12:43:41;5.85;;;5.35;;
75012;SDS011;63567;49.956;20.130;2023-05-21T12:46:07;5.80;;;5.30;;
75012;SDS011;63567;49.956;20.130;2023-05-21T12:51:02;6.55;;;5.80;;
75012;SDS011;63567;49.956;20.130;2023-05-21T12:53:35;9.10;;;8.50;;
75012;SDS011;63567;49.956;20.130;2023-05-21T12:56:11;6.75;;;6.07;;
75012;SDS011;63567;49.956;20.130;2023-05-21T12:58:37;6.32;;;5.65;;
75012;SDS011;63567;49.956;20.130;2023-05-21T13:01:09;5.65;;;5.05;;
75012;SDS011;63567;49.956;20.130;2023-05-21T13:03:36;6.13;;;4.93;;
75012;SDS011;63567;49.956;20.130;2023-05-21T13:06:05;5.97;;;5.13;;
75012;SDS011;63567;49.956;20.130;2023-05-21T13:08:32;5.80;;;5.30;;
75012;SDS011;63567;49.956;20.130;2023-05-21T13:11:01;6.53;;;5.90;;
75012;SDS011;63567;49.956;20.130;2023-05-21T13:13:27;6.32;;;5.72;;
75012;SDS011;63567;49.956;20.130;2023-05-21T13:15:53;5.65;;;5.25;;
75012;SDS011;63567;49.956;20.130;2023-05-21T13:18:19;6.38;;;4.53;;
75012;SDS011;63567;49.956;20.130;2023-05-21T13:20:44;5.47;;;5.00;;
75012;SDS011;63567;49.956;20.130;2023-05-21T13:23:10;7.68;;;7.13;;
75012;SDS011;63567;49.956;20.130;2023-05-21T13:25:35;5.47;;;4.97;;
75012;SDS011;63567;49.956;20.130;2023-05-21T13:28:01;6.60;;;6.00;;
75012;SDS011;63567;49.956;20.130;2023-05-21T13:30:28;4.78;;;4.38;;
75012;SDS011;63567;49.956;20.130;2023-05-21T13:32:53;7.17;;;6.77;;
75012;SDS011;63567;49.956;20.130;2023-05-21T13:35:19;5.60;;;5.10;;
75012;SDS011;63567;49.956;20.130;2023-05-21T13:37:44;5.63;;;5.23;;
75012;SDS011;63567;49.956;20.130;2023-05-21T13:40:10;6.35;;;5.82;;
75012;SDS011;63567;49.956;20.130;2023-05-21T13:42:40;5.88;;;5.38;;
75012;SDS011;63567;49.956;20.130;2023-05-21T13:45:10;6.00;;;5.55;;
75012;SDS011;63567;49.956;20.130;2023-05-21T13:47:37;9.38;;;8.88;;
75012;SDS011;63567;49.956;20.130;2023-05-21T13:50:02;6.53;;;5.93;;
75012;SDS011;63567;49.956;20.130;2023-05-21T13:52:28;6.65;;;6.15;;
75012;SDS011;63567;49.956;20.130;2023-05-21T13:54:53;5.60;;;5.20;;
75012;SDS011;63567;49.956;20.130;2023-05-21T13:57:18;5.78;;;5.28;;
75012;SDS011;63567;49.956;20.130;2023-05-21T13:59:44;5.22;;;4.82;;
75012;SDS011;63567;49.956;20.130;2023-05-21T14:02:09;5.28;;;4.88;;
75012;SDS011;63567;49.956;20.130;2023-05-21T14:04:35;8.53;;;8.00;;
75012;SDS011;63567;49.956;20.130;2023-05-21T14:07:00;5.65;;;4.75;;
75012;SDS011;63567;49.956;20.130;2023-05-21T14:09:26;4.38;;;3.97;;
75012;SDS011;63567;49.956;20.130;2023-05-21T14:11:53;5.55;;;5.15;;
75012;SDS011;63567;49.956;20.130;2023-05-21T14:14:19;4.88;;;4.22;;
75012;SDS011;63567;49.956;20.130;2023-05-21T14:16:50;5.07;;;4.68;;
75012;SDS011;63567;49.956;20.130;2023-05-21T14:19:16;5.40;;;4.97;;
75012;SDS011;63567;49.956;20.130;2023-05-21T14:21:41;5.03;;;4.45;;
75012;SDS011;63567;49.956;20.130;2023-05-21T14:24:07;5.00;;;4.50;;
75012;SDS011;63567;49.956;20.130;2023-05-21T14:26:32;5.87;;;5.43;;
75012;SDS011;63567;49.956;20.130;2023-05-21T14:29:00;5.68;;;5.18;;
75012;SDS011;63567;49.956;20.130;2023-05-21T14:31:25;6.10;;;5.50;;
75012;SDS011;63567;49.956;20.130;2023-05-21T14:33:51;5.97;;;5.30;;
75012;SDS011;63567;49.956;20.130;2023-05-21T14:36:16;6.73;;;5.97;;
75012;SDS011;63567;49.956;20.130;2023-05-21T14:38:41;4.25;;;3.95;;